Airfield :
LOGIN :

Register | Disclaimer

   EN    FR    IT 

 










Legend :    VFR   Marginal VFR   IFR   Intensive IFR   Very Intensive IFR
Visi :
Ceiling :
>= 8 km
>= 3000ft
5 to 8 km
1000 to 3000 ft
1500m to 5 km
500 to 1000 ft
800 to 1500m
200 to 500 ft
< 800m
< 200 ft
Symbols :   Thunderstorms  Fog  Heavy snow  Heavy precipitations  Wind > 20 kt
SIGMETs :     Misc.  Thunderstorms  Icing  Turbulence  Mountain Waves  Volcanic Ashes







- Airport Elevation : 978 ft
- IATA code : LNZ


LOWL - Linz

CURRENT METAR :
  • 101220Z 32013G23KT 290V350 9999 FEW011 SCT026 BKN032 03/01 Q1017 NOSIG

EXPIRED METARs :
  • 101150Z 26016KT 9999 FEW018 SCT026 BKN045 05/01 Q1017 NOSIG
  • 101120Z 26019KT 9999 FEW020 BKN050 05/00 Q1017 NOSIG
  • 101050Z 28020KT 9999 FEW020 BKN050 05/M00 Q1017 NOSIG
  • 101020Z 28021KT 9999 FEW018 SCT050 BKN150 05/00 Q1017 NOSIG
  • 100950Z 28020KT 9999 FEW018 BKN050 BKN130 05/01 Q1017 NOSIG

TAF TAF LOWL
Valid from the 10 at 12:00 until the 11 at 12:00 UTC


101115Z 1012/1112 27015KT 9999 BKN040 TX05/1012Z TN01/1102Z
TEMPO 1012/1015 28020G32KT SHRA
BECMG 1016/1018 27012KT BKN030
TEMPO 1018/1112 -SHRASN
PROB40
TEMPO 1018/1112 28022G32KT 2500 SHSN BKN012
No reported NOTAMs for that airfield.



MET'MAP, your aeronautical weather chart ! - Copyright ORBIFLY December 2007 - Disclaimer

ORBIFLY MET'MAP TEAM :

Programming & Development : Alexandra Zaïnal
Concept & Development : Baudouin d'Aumeries
Co-Development & Prog : Marc-Olivier Méhu
Technical & hardware support : Manuel Goepfert

Contact : metmap@orbifly.com




SOURCES & CREDITS :

   NOAA